Jackson, Missouri
Current Conditions -  °F | °C
As of 1:53 PM on Wednesday 28 Jan 2015 (Local Time) from KCGI Reporting Station
Clear Clear  
Wind Chill:   Ceiling: Unl
Heat Index:   Visibility: 10mi
Dew Point:   Wind: 13mph
Humidity: 63%   Direction: 170°S
Pressure: 30.17"   Gusts: NA
Location:  37.38°N, 89.67°W
Report Text: KCGI 281953Z 17011KT 10SM CLR 07/01 A3017 RMK AO2 PRESFR SLP219 T00720006
Loading
Personal Weather Stations






























Interactive Weather Map New forecast layout! Learn more

10-Day Weather Forecast

Advertisements
Track Severe Weather on mobile